Time;durP1;ratioP1;P1;durP2;ratioP2;P2;SDS_P1;SDS_P2;PMS_P1;PMS_P2;Temp;Humidity;BMP_temperature;BMP_pressure;BME280_temperature;BME280_humidity;BME280_pressure;Samples;Min_cycle;Max_cycle;Signal;HPM_P1;HPM_P2
2022/06/10 00:00:03;;;;;;;0.4;0.4;;;;;;;15.4;100.0;101790;;;;
2022/06/10 00:01:00;;;;;;;0.4;0.4;;;;;;;15.4;100.0;101800;;;;
2022/06/10 00:02:00;;;;;;;0.4;0.4;;;;;;;15.4;100.0;101800;;;;
2022/06/10 00:03:00;;;;;;;0.4;0.4;;;;;;;15.4;100.0;101790;;;;
2022/06/10 00:04:00;;;;;;;0.4;0.4;;;;;;;15.4;100.0;101790;;;;
2022/06/10 00:05:00;;;;;;;0.4;0.4;;;;;;;15.4;100.0;101790;;;;
2022/06/10 00:06:01;;;;;;;0.4;0.4;;;;;;;15.4;100.0;101790;;;;
2022/06/10 00:07:00;;;;;;;0.4;0.4;;;;;;;15.4;100.0;101790;;;;
2022/06/10 00:08:00;;;;;;;0.4;0.4;;;;;;;15.4;100.0;101790;;;;
2022/06/10 00:09:00;;;;;;;0.4;0.4;;;;;;;15.4;100.0;101790;;;;
2022/06/10 00:10:00;;;;;;;0.4;0.4;;;;;;;15.4;100.0;101790;;;;
2022/06/10 00:11:01;;;;;;;0.4;0.4;;;;;;;15.4;100.0;101800;;;;
2022/06/10 00:12:00;;;;;;;0.4;0.4;;;;;;;15.4;100.0;101800;;;;
2022/06/10 00:13:00;;;;;;;0.4;0.4;;;;;;;15.3;100.0;101800;;;;
2022/06/10 00:14:00;;;;;;;0.4;0.4;;;;;;;15.3;100.0;101800;;;;
2022/06/10 00:15:00;;;;;;;0.4;0.4;;;;;;;15.2;100.0;101800;;;;
2022/06/10 00:16:00;;;;;;;0.4;0.4;;;;;;;15.2;100.0;101800;;;;
2022/06/10 00:17:00;;;;;;;0.4;0.4;;;;;;;15.2;100.0;101800;;;;
2022/06/10 00:18:00;;;;;;;0.4;0.4;;;;;;;15.2;100.0;101800;;;;
2022/06/10 00:19:00;;;;;;;0.4;0.4;;;;;;;15.1;100.0;101800;;;;
2022/06/10 00:20:00;;;;;;;0.4;0.4;;;;;;;15.1;100.0;101800;;;;
2022/06/10 00:21:01;;;;;;;0.4;0.4;;;;;;;15.1;100.0;101800;;;;
2022/06/10 00:22:01;;;;;;;0.4;0.4;;;;;;;15.1;100.0;101800;;;;
2022/06/10 00:23:00;;;;;;;0.4;0.4;;;;;;;15.1;100.0;101800;;;;
2022/06/10 00:24:00;;;;;;;0.4;0.4;;;;;;;15.1;100.0;101800;;;;
2022/06/10 00:25:00;;;;;;;0.4;0.4;;;;;;;15.0;100.0;101800;;;;
2022/06/10 00:26:00;;;;;;;0.4;0.4;;;;;;;15.0;100.0;101800;;;;
2022/06/10 00:27:00;;;;;;;0.6;0.6;;;;;;;15.1;100.0;101800;;;;
2022/06/10 00:28:00;;;;;;;0.6;0.6;;;;;;;15.1;100.0;101800;;;;
2022/06/10 00:29:01;;;;;;;0.6;0.6;;;;;;;15.1;100.0;101810;;;;
2022/06/10 00:30:00;;;;;;;0.6;0.6;;;;;;;15.1;100.0;101810;;;;
2022/06/10 00:31:00;;;;;;;0.6;0.6;;;;;;;15.1;100.0;101800;;;;
2022/06/10 00:32:00;;;;;;;0.6;0.6;;;;;;;15.1;100.0;101800;;;;
2022/06/10 00:33:00;;;;;;;0.6;0.6;;;;;;;15.1;100.0;101800;;;;
2022/06/10 00:34:00;;;;;;;0.6;0.6;;;;;;;15.1;100.0;101800;;;;
2022/06/10 00:35:00;;;;;;;0.6;0.6;;;;;;;14.9;100.0;101800;;;;
2022/06/10 00:36:00;;;;;;;0.6;0.6;;;;;;;14.9;100.0;101800;;;;
2022/06/10 00:37:00;;;;;;;0.6;0.6;;;;;;;14.9;100.0;101800;;;;
2022/06/10 00:38:00;;;;;;;0.6;0.6;;;;;;;14.9;100.0;101800;;;;
2022/06/10 00:39:00;;;;;;;0.6;0.6;;;;;;;14.9;100.0;101800;;;;
2022/06/10 00:40:00;;;;;;;0.6;0.6;;;;;;;14.9;100.0;101800;;;;
2022/06/10 00:41:00;;;;;;;0.6;0.6;;;;;;;14.9;100.0;101800;;;;
2022/06/10 00:42:01;;;;;;;0.6;0.6;;;;;;;14.9;100.0;101800;;;;
2022/06/10 00:43:00;;;;;;;0.6;0.6;;;;;;;14.8;100.0;101800;;;;
2022/06/10 00:44:00;;;;;;;0.6;0.6;;;;;;;14.8;100.0;101800;;;;
2022/06/10 00:45:00;;;;;;;0.6;0.6;;;;;;;14.9;100.0;101800;;;;
2022/06/10 00:46:05;;;;;;;0.6;0.6;;;;;;;14.9;100.0;101800;;;;
2022/06/10 00:47:04;;;;;;;0.5;0.5;;;;;;;14.9;100.0;101800;;;;
2022/06/10 00:48:00;;;;;;;0.5;0.5;;;;;;;14.9;100.0;101800;;;;
2022/06/10 00:49:03;;;;;;;0.5;0.5;;;;;;;14.7;100.0;101800;;;;
2022/06/10 00:50:10;;;;;;;0.5;0.5;;;;;;;14.7;100.0;101800;;;;
2022/06/10 00:51:03;;;;;;;0.5;0.5;;;;;;;14.8;100.0;101800;;;;
2022/06/10 00:52:00;;;;;;;0.5;0.5;;;;;;;14.8;100.0;101800;;;;
2022/06/10 00:53:02;;;;;;;0.5;0.5;;;;;;;14.6;100.0;101790;;;;
2022/06/10 00:54:07;;;;;;;0.5;0.5;;;;;;;14.6;100.0;101790;;;;
2022/06/10 00:55:00;;;;;;;0.5;0.5;;;;;;;14.6;100.0;101790;;;;
2022/06/10 00:56:04;;;;;;;0.5;0.5;;;;;;;14.6;100.0;101790;;;;
2022/06/10 00:57:03;;;;;;;0.5;0.5;;;;;;;14.7;100.0;101790;;;;
2022/06/10 00:58:04;;;;;;;0.5;0.5;;;;;;;14.7;100.0;101790;;;;
2022/06/10 00:59:03;;;;;;;0.5;0.5;;;;;;;14.8;100.0;101790;;;;
2022/06/10 01:00:06;;;;;;;0.5;0.5;;;;;;;14.8;100.0;101790;;;;
2022/06/10 01:01:01;;;;;;;0.5;0.5;;;;;;;14.7;100.0;101790;;;;
2022/06/10 01:02:02;;;;;;;0.5;0.5;;;;;;;14.7;100.0;101790;;;;
2022/06/10 01:03:00;;;;;;;0.5;0.5;;;;;;;14.7;100.0;101790;;;;
2022/06/10 01:04:01;;;;;;;0.5;0.5;;;;;;;14.7;100.0;101790;;;;
2022/06/10 01:05:01;;;;;;;0.5;0.5;;;;;;;14.6;100.0;101790;;;;
2022/06/10 01:06:00;;;;;;;0.5;0.5;;;;;;;14.6;100.0;101790;;;;
2022/06/10 01:07:00;;;;;;;0.5;0.5;;;;;;;14.7;100.0;101790;;;;
2022/06/10 01:08:04;;;;;;;0.5;0.5;;;;;;;14.7;100.0;101790;;;;
2022/06/10 01:09:01;;;;;;;0.5;0.5;;;;;;;14.6;100.0;101790;;;;
2022/06/10 01:10:01;;;;;;;0.5;0.5;;;;;;;14.6;100.0;101790;;;;
2022/06/10 01:11:01;;;;;;;0.5;0.5;;;;;;;14.6;100.0;101790;;;;
2022/06/10 01:12:10;;;;;;;0.5;0.5;;;;;;;14.6;100.0;101790;;;;
2022/06/10 01:13:01;;;;;;;0.5;0.5;;;;;;;14.5;100.0;101790;;;;
2022/06/10 01:14:09;;;;;;;0.5;0.5;;;;;;;14.5;100.0;101790;;;;
2022/06/10 01:15:07;;;;;;;0.5;0.5;;;;;;;14.5;100.0;101790;;;;
2022/06/10 01:16:10;;;;;;;0.5;0.5;;;;;;;14.5;100.0;101790;;;;
2022/06/10 01:17:00;;;;;;;0.5;0.5;;;;;;;14.5;100.0;101790;;;;
2022/06/10 01:18:01;;;;;;;0.5;0.5;;;;;;;14.5;100.0;101790;;;;
2022/06/10 01:19:05;;;;;;;0.5;0.5;;;;;;;14.5;100.0;101790;;;;
2022/06/10 01:20:00;;;;;;;0.5;0.5;;;;;;;14.5;100.0;101790;;;;
2022/06/10 01:21:07;;;;;;;0.5;0.5;;;;;;;14.5;100.0;101790;;;;
2022/06/10 01:22:07;;;;;;;0.5;0.5;;;;;;;14.5;100.0;101790;;;;
2022/06/10 01:23:10;;;;;;;0.5;0.5;;;;;;;14.5;100.0;101790;;;;
2022/06/10 01:24:10;;;;;;;0.5;0.5;;;;;;;14.5;100.0;101790;;;;
2022/06/10 01:25:06;;;;;;;0.5;0.5;;;;;;;14.4;100.0;101790;;;;
2022/06/10 01:26:10;;;;;;;0.5;0.5;;;;;;;14.4;100.0;101790;;;;
2022/06/10 01:28:10;;;;;;;0.8;0.8;;;;;;;14.4;100.0;101790;;;;
2022/06/10 01:29:10;;;;;;;0.8;0.8;;;;;;;14.4;100.0;101790;;;;
2022/06/10 01:30:00;;;;;;;0.8;0.8;;;;;;;14.4;100.0;101790;;;;
2022/06/10 01:31:10;;;;;;;0.8;0.8;;;;;;;14.3;100.0;101790;;;;
2022/06/10 01:32:02;;;;;;;0.8;0.8;;;;;;;14.3;100.0;101790;;;;
2022/06/10 01:33:09;;;;;;;0.8;0.8;;;;;;;14.4;100.0;101790;;;;
2022/06/10 01:34:00;;;;;;;0.8;0.8;;;;;;;14.4;100.0;101790;;;;
2022/06/10 01:35:07;;;;;;;0.8;0.8;;;;;;;14.3;100.0;101790;;;;
2022/06/10 01:36:02;;;;;;;0.8;0.8;;;;;;;14.3;100.0;101790;;;;
2022/06/10 01:37:03;;;;;;;0.8;0.8;;;;;;;14.4;100.0;101790;;;;
2022/06/10 01:38:05;;;;;;;0.8;0.8;;;;;;;14.4;100.0;101790;;;;
2022/06/10 01:39:03;;;;;;;0.8;0.8;;;;;;;14.3;100.0;101790;;;;
2022/06/10 01:40:04;;;;;;;0.8;0.8;;;;;;;14.3;100.0;101790;;;;
2022/06/10 01:41:01;;;;;;;0.8;0.8;;;;;;;14.2;100.0;101790;;;;
2022/06/10 01:42:00;;;;;;;0.8;0.8;;;;;;;14.2;100.0;101790;;;;
2022/06/10 01:43:07;;;;;;;0.8;0.8;;;;;;;14.4;100.0;101790;;;;
2022/06/10 01:44:10;;;;;;;0.8;0.8;;;;;;;14.4;100.0;101790;;;;
2022/06/10 01:45:07;;;;;;;0.8;0.8;;;;;;;14.4;100.0;101790;;;;
2022/06/10 01:46:03;;;;;;;0.8;0.8;;;;;;;14.4;100.0;101790;;;;
2022/06/10 01:47:10;;;;;;;0.7;0.7;;;;;;;14.6;100.0;101780;;;;
2022/06/10 01:48:01;;;;;;;0.7;0.7;;;;;;;14.6;100.0;101780;;;;
2022/06/10 01:49:06;;;;;;;0.7;0.7;;;;;;;14.4;100.0;101780;;;;
2022/06/10 01:50:06;;;;;;;0.7;0.7;;;;;;;14.4;100.0;101780;;;;
2022/06/10 01:51:10;;;;;;;0.7;0.7;;;;;;;14.4;100.0;101780;;;;
2022/06/10 01:52:10;;;;;;;0.7;0.7;;;;;;;14.4;100.0;101780;;;;
2022/06/10 01:53:04;;;;;;;0.7;0.7;;;;;;;14.5;100.0;101780;;;;
2022/06/10 01:54:04;;;;;;;0.7;0.7;;;;;;;14.5;100.0;101780;;;;
2022/06/10 01:55:08;;;;;;;0.7;0.7;;;;;;;14.5;100.0;101780;;;;
2022/06/10 01:56:04;;;;;;;0.7;0.7;;;;;;;14.5;100.0;101780;;;;
2022/06/10 01:57:03;;;;;;;0.7;0.7;;;;;;;14.5;100.0;101780;;;;
2022/06/10 01:58:07;;;;;;;0.7;0.7;;;;;;;14.5;100.0;101780;;;;
2022/06/10 01:59:03;;;;;;;0.7;0.7;;;;;;;14.6;100.0;101780;;;;
2022/06/10 02:00:04;;;;;;;0.7;0.7;;;;;;;14.6;100.0;101780;;;;
2022/06/10 02:01:02;;;;;;;0.7;0.7;;;;;;;14.5;100.0;101780;;;;
2022/06/10 02:02:04;;;;;;;0.7;0.7;;;;;;;14.5;100.0;101780;;;;
2022/06/10 02:03:10;;;;;;;0.7;0.7;;;;;;;14.6;100.0;101790;;;;
2022/06/10 02:04:10;;;;;;;0.7;0.7;;;;;;;14.6;100.0;101790;;;;
2022/06/10 02:05:06;;;;;;;0.7;0.7;;;;;;;14.7;100.0;101780;;;;
2022/06/10 02:06:02;;;;;;;0.7;0.7;;;;;;;14.7;100.0;101780;;;;
2022/06/10 02:07:03;;;;;;;0.5;0.5;;;;;;;14.8;100.0;101790;;;;
2022/06/10 02:08:11;;;;;;;0.5;0.5;;;;;;;14.8;100.0;101790;;;;
2022/06/10 02:09:02;;;;;;;0.5;0.5;;;;;;;14.8;100.0;101790;;;;
2022/06/10 02:10:03;;;;;;;0.5;0.5;;;;;;;14.8;100.0;101790;;;;
2022/06/10 02:11:05;;;;;;;0.5;0.5;;;;;;;14.8;100.0;101790;;;;
2022/06/10 02:12:13;;;;;;;0.5;0.5;;;;;;;14.8;100.0;101790;;;;
2022/06/10 02:13:04;;;;;;;0.5;0.5;;;;;;;14.8;100.0;101790;;;;
2022/06/10 02:14:02;;;;;;;0.5;0.5;;;;;;;14.8;100.0;101790;;;;
2022/06/10 02:15:04;;;;;;;0.5;0.5;;;;;;;14.8;100.0;101790;;;;
2022/06/10 02:16:01;;;;;;;0.5;0.5;;;;;;;14.8;100.0;101790;;;;
2022/06/10 02:17:01;;;;;;;0.5;0.5;;;;;;;14.8;100.0;101790;;;;
2022/06/10 02:18:05;;;;;;;0.5;0.5;;;;;;;14.8;100.0;101790;;;;
2022/06/10 02:19:01;;;;;;;0.5;0.5;;;;;;;14.9;100.0;101790;;;;
2022/06/10 02:20:00;;;;;;;0.5;0.5;;;;;;;14.9;100.0;101790;;;;
2022/06/10 02:21:01;;;;;;;0.5;0.5;;;;;;;14.9;100.0;101790;;;;
2022/06/10 02:22:03;;;;;;;0.5;0.5;;;;;;;14.9;100.0;101790;;;;
2022/06/10 02:23:02;;;;;;;0.5;0.5;;;;;;;14.8;100.0;101790;;;;
2022/06/10 02:24:03;;;;;;;0.5;0.5;;;;;;;14.8;100.0;101790;;;;
2022/06/10 02:25:04;;;;;;;0.5;0.5;;;;;;;14.9;100.0;101790;;;;
2022/06/10 02:26:02;;;;;;;0.5;0.5;;;;;;;14.9;100.0;101790;;;;
2022/06/10 02:27:04;;;;;;;0.5;0.5;;;;;;;14.8;100.0;101790;;;;
2022/06/10 02:28:03;;;;;;;0.5;0.5;;;;;;;14.8;100.0;101790;;;;
2022/06/10 02:29:01;;;;;;;0.5;0.5;;;;;;;14.9;100.0;101790;;;;
2022/06/10 02:30:05;;;;;;;0.5;0.5;;;;;;;14.9;100.0;101790;;;;
2022/06/10 02:31:03;;;;;;;0.5;0.5;;;;;;;14.9;100.0;101790;;;;
2022/06/10 02:32:00;;;;;;;0.5;0.5;;;;;;;14.9;100.0;101790;;;;
2022/06/10 02:33:00;;;;;;;0.5;0.5;;;;;;;14.9;100.0;101790;;;;
2022/06/10 02:34:01;;;;;;;0.5;0.5;;;;;;;14.9;100.0;101790;;;;
2022/06/10 02:35:01;;;;;;;0.5;0.5;;;;;;;15.0;100.0;101790;;;;
2022/06/10 02:36:10;;;;;;;0.5;0.5;;;;;;;15.0;100.0;101790;;;;
2022/06/10 02:37:10;;;;;;;0.5;0.5;;;;;;;15.0;100.0;101800;;;;
2022/06/10 02:38:06;;;;;;;0.5;0.5;;;;;;;15.0;100.0;101800;;;;
2022/06/10 02:39:10;;;;;;;0.5;0.5;;;;;;;15.0;100.0;101800;;;;
2022/06/10 02:40:08;;;;;;;0.5;0.5;;;;;;;15.0;100.0;101800;;;;
2022/06/10 02:41:09;;;;;;;0.5;0.5;;;;;;;15.1;100.0;101800;;;;
2022/06/10 02:42:08;;;;;;;0.5;0.5;;;;;;;15.1;100.0;101800;;;;
2022/06/10 02:43:07;;;;;;;0.5;0.5;;;;;;;15.0;100.0;101800;;;;
2022/06/10 02:44:10;;;;;;;0.5;0.5;;;;;;;15.0;100.0;101800;;;;
2022/06/10 02:45:07;;;;;;;0.5;0.5;;;;;;;15.1;100.0;101800;;;;
2022/06/10 02:46:08;;;;;;;0.4;0.4;;;;;;;15.1;100.0;101800;;;;
2022/06/10 02:47:07;;;;;;;0.4;0.4;;;;;;;15.1;100.0;101800;;;;
2022/06/10 02:48:10;;;;;;;0.4;0.4;;;;;;;15.1;100.0;101800;;;;
2022/06/10 02:49:00;;;;;;;0.4;0.4;;;;;;;15.1;100.0;101800;;;;
2022/06/10 02:50:00;;;;;;;0.4;0.4;;;;;;;15.1;100.0;101800;;;;
2022/06/10 02:51:00;;;;;;;0.4;0.4;;;;;;;15.1;100.0;101800;;;;
2022/06/10 02:52:01;;;;;;;0.4;0.4;;;;;;;15.1;100.0;101800;;;;
2022/06/10 02:53:03;;;;;;;0.4;0.4;;;;;;;15.0;100.0;101800;;;;
2022/06/10 02:54:01;;;;;;;0.4;0.4;;;;;;;15.0;100.0;101800;;;;
2022/06/10 02:55:00;;;;;;;0.4;0.4;;;;;;;15.0;100.0;101810;;;;
2022/06/10 02:56:00;;;;;;;0.4;0.4;;;;;;;15.0;100.0;101810;;;;
2022/06/10 02:57:09;;;;;;;0.4;0.4;;;;;;;15.0;100.0;101800;;;;
2022/06/10 03:01:13;;;;;;;0.4;0.4;;;;;;;15.1;100.0;101800;;;;
2022/06/10 03:02:04;;;;;;;0.4;0.4;;;;;;;15.1;100.0;101800;;;;
2022/06/10 03:03:09;;;;;;;0.4;0.4;;;;;;;15.1;100.0;101800;;;;
2022/06/10 03:04:09;;;;;;;0.4;0.4;;;;;;;15.1;100.0;101800;;;;
2022/06/10 03:05:01;;;;;;;0.4;0.4;;;;;;;15.1;100.0;101800;;;;
2022/06/10 03:06:08;;;;;;;0.5;0.5;;;;;;;15.1;100.0;101800;;;;
2022/06/10 03:07:03;;;;;;;0.5;0.5;;;;;;;15.1;100.0;101800;;;;
2022/06/10 03:08:01;;;;;;;0.5;0.5;;;;;;;15.1;100.0;101800;;;;
2022/06/10 03:09:06;;;;;;;0.5;0.5;;;;;;;15.2;100.0;101800;;;;
2022/06/10 03:10:08;;;;;;;0.5;0.5;;;;;;;15.2;100.0;101800;;;;
2022/06/10 03:11:08;;;;;;;0.5;0.5;;;;;;;15.1;100.0;101800;;;;
2022/06/10 03:12:10;;;;;;;0.5;0.5;;;;;;;15.1;100.0;101800;;;;
2022/06/10 03:13:10;;;;;;;0.5;0.5;;;;;;;15.2;100.0;101800;;;;
2022/06/10 03:14:08;;;;;;;0.5;0.5;;;;;;;15.2;100.0;101800;;;;
2022/06/10 03:15:10;;;;;;;0.5;0.5;;;;;;;15.0;100.0;101800;;;;
2022/06/10 03:16:10;;;;;;;0.5;0.5;;;;;;;15.0;100.0;101800;;;;
2022/06/10 03:17:01;;;;;;;0.5;0.5;;;;;;;15.1;100.0;101800;;;;
2022/06/10 03:18:11;;;;;;;0.5;0.5;;;;;;;15.1;100.0;101800;;;;
2022/06/10 03:19:00;;;;;;;0.5;0.5;;;;;;;15.0;100.0;101810;;;;
2022/06/10 03:20:03;;;;;;;0.5;0.5;;;;;;;15.0;100.0;101810;;;;
2022/06/10 03:21:00;;;;;;;0.5;0.5;;;;;;;15.1;100.0;101810;;;;
2022/06/10 03:22:10;;;;;;;0.5;0.5;;;;;;;15.1;100.0;101810;;;;
2022/06/10 03:23:10;;;;;;;0.5;0.5;;;;;;;15.1;100.0;101810;;;;
2022/06/10 03:24:10;;;;;;;0.5;0.5;;;;;;;15.1;100.0;101810;;;;
2022/06/10 03:25:01;;;;;;;0.5;0.5;;;;;;;15.1;100.0;101810;;;;
2022/06/10 03:26:04;;;;;;;0.4;0.4;;;;;;;15.1;100.0;101810;;;;
2022/06/10 03:27:00;;;;;;;0.4;0.4;;;;;;;15.1;100.0;101810;;;;
2022/06/10 03:28:11;;;;;;;0.4;0.4;;;;;;;15.1;100.0;101810;;;;
2022/06/10 03:29:10;;;;;;;0.4;0.4;;;;;;;15.1;100.0;101810;;;;
2022/06/10 03:30:05;;;;;;;0.4;0.4;;;;;;;15.1;100.0;101810;;;;
2022/06/10 03:31:03;;;;;;;0.4;0.4;;;;;;;14.9;100.0;101820;;;;
2022/06/10 03:32:04;;;;;;;0.4;0.4;;;;;;;14.9;100.0;101820;;;;
2022/06/10 03:33:07;;;;;;;0.4;0.4;;;;;;;15.0;100.0;101820;;;;
2022/06/10 03:34:04;;;;;;;0.4;0.4;;;;;;;15.0;100.0;101820;;;;
2022/06/10 03:35:03;;;;;;;0.4;0.4;;;;;;;15.1;100.0;101820;;;;
2022/06/10 03:36:03;;;;;;;0.4;0.4;;;;;;;15.1;100.0;101820;;;;
2022/06/10 03:37:01;;;;;;;0.4;0.4;;;;;;;15.1;100.0;101820;;;;
2022/06/10 03:38:03;;;;;;;0.4;0.4;;;;;;;15.1;100.0;101820;;;;
2022/06/10 03:39:01;;;;;;;0.4;0.4;;;;;;;15.1;100.0;101820;;;;
2022/06/10 03:40:00;;;;;;;0.4;0.4;;;;;;;15.1;100.0;101820;;;;
2022/06/10 03:41:03;;;;;;;0.4;0.4;;;;;;;15.0;100.0;101820;;;;
2022/06/10 03:42:10;;;;;;;0.4;0.4;;;;;;;15.0;100.0;101820;;;;
2022/06/10 03:43:03;;;;;;;0.4;0.4;;;;;;;15.1;100.0;101820;;;;
2022/06/10 03:44:02;;;;;;;0.4;0.4;;;;;;;15.1;100.0;101820;;;;
2022/06/10 03:45:00;;;;;;;0.4;0.4;;;;;;;15.2;100.0;101820;;;;
2022/06/10 03:46:02;;;;;;;0.3;0.3;;;;;;;15.2;100.0;101820;;;;
2022/06/10 03:47:00;;;;;;;0.3;0.3;;;;;;;15.2;100.0;101830;;;;
2022/06/10 03:48:00;;;;;;;0.3;0.3;;;;;;;15.2;100.0;101830;;;;
2022/06/10 03:49:03;;;;;;;0.3;0.3;;;;;;;15.1;100.0;101830;;;;
2022/06/10 03:50:03;;;;;;;0.3;0.3;;;;;;;15.1;100.0;101830;;;;
2022/06/10 03:51:00;;;;;;;0.3;0.3;;;;;;;15.1;100.0;101830;;;;
2022/06/10 03:52:00;;;;;;;0.3;0.3;;;;;;;15.1;100.0;101830;;;;
2022/06/10 03:53:00;;;;;;;0.3;0.3;;;;;;;15.1;100.0;101830;;;;
2022/06/10 03:54:00;;;;;;;0.3;0.3;;;;;;;15.1;100.0;101830;;;;
2022/06/10 03:55:00;;;;;;;0.3;0.3;;;;;;;15.2;100.0;101830;;;;
2022/06/10 03:56:00;;;;;;;0.3;0.3;;;;;;;15.2;100.0;101830;;;;
2022/06/10 03:57:00;;;;;;;0.3;0.3;;;;;;;15.3;100.0;101830;;;;
2022/06/10 03:58:00;;;;;;;0.3;0.3;;;;;;;15.3;100.0;101830;;;;
2022/06/10 03:59:00;;;;;;;0.3;0.3;;;;;;;15.3;100.0;101830;;;;
2022/06/10 04:00:00;;;;;;;0.3;0.3;;;;;;;15.3;100.0;101830;;;;
2022/06/10 04:01:00;;;;;;;0.3;0.3;;;;;;;15.4;100.0;101830;;;;
2022/06/10 04:02:00;;;;;;;0.3;0.3;;;;;;;15.4;100.0;101830;;;;
2022/06/10 04:03:00;;;;;;;0.3;0.3;;;;;;;15.3;100.0;101840;;;;
2022/06/10 04:04:00;;;;;;;0.3;0.3;;;;;;;15.3;100.0;101840;;;;
2022/06/10 04:05:00;;;;;;;0.3;0.3;;;;;;;15.3;100.0;101840;;;;
2022/06/10 04:06:10;;;;;;;0.3;0.3;;;;;;;15.3;100.0;101840;;;;
2022/06/10 04:07:00;;;;;;;0.3;0.3;;;;;;;15.4;100.0;101840;;;;
2022/06/10 04:08:00;;;;;;;0.3;0.3;;;;;;;15.4;100.0;101840;;;;
2022/06/10 04:09:05;;;;;;;0.3;0.3;;;;;;;15.4;100.0;101840;;;;
2022/06/10 04:10:00;;;;;;;0.3;0.3;;;;;;;15.4;100.0;101840;;;;
2022/06/10 04:11:00;;;;;;;0.3;0.3;;;;;;;15.5;100.0;101840;;;;
2022/06/10 04:12:00;;;;;;;0.3;0.3;;;;;;;15.5;100.0;101840;;;;
2022/06/10 04:13:00;;;;;;;0.3;0.3;;;;;;;15.5;100.0;101840;;;;
2022/06/10 04:14:00;;;;;;;0.3;0.3;;;;;;;15.5;100.0;101840;;;;
2022/06/10 04:15:00;;;;;;;0.3;0.3;;;;;;;15.4;100.0;101840;;;;
2022/06/10 04:16:00;;;;;;;0.3;0.3;;;;;;;15.4;100.0;101840;;;;
2022/06/10 04:17:00;;;;;;;0.3;0.3;;;;;;;15.5;100.0;101840;;;;
2022/06/10 04:18:00;;;;;;;0.3;0.3;;;;;;;15.5;100.0;101840;;;;
2022/06/10 04:19:00;;;;;;;0.3;0.3;;;;;;;15.5;100.0;101840;;;;
2022/06/10 04:20:00;;;;;;;0.3;0.3;;;;;;;15.5;100.0;101840;;;;
2022/06/10 04:21:00;;;;;;;0.3;0.3;;;;;;;15.5;100.0;101840;;;;
2022/06/10 04:22:00;;;;;;;0.3;0.3;;;;;;;15.5;100.0;101840;;;;
2022/06/10 04:23:00;;;;;;;0.3;0.3;;;;;;;15.5;100.0;101850;;;;
2022/06/10 04:24:00;;;;;;;0.3;0.3;;;;;;;15.5;100.0;101850;;;;
2022/06/10 04:25:00;;;;;;;0.3;0.3;;;;;;;15.4;100.0;101850;;;;
2022/06/10 04:26:00;;;;;;;0.5;0.5;;;;;;;15.4;100.0;101850;;;;
2022/06/10 04:27:01;;;;;;;0.5;0.5;;;;;;;15.4;100.0;101850;;;;
2022/06/10 04:28:00;;;;;;;0.5;0.5;;;;;;;15.4;100.0;101850;;;;
2022/06/10 04:29:00;;;;;;;0.5;0.5;;;;;;;15.5;100.0;101860;;;;
2022/06/10 04:30:00;;;;;;;0.5;0.5;;;;;;;15.5;100.0;101860;;;;
2022/06/10 04:31:00;;;;;;;0.5;0.5;;;;;;;15.5;100.0;101860;;;;
2022/06/10 04:32:00;;;;;;;0.5;0.5;;;;;;;15.5;100.0;101860;;;;
2022/06/10 04:33:01;;;;;;;0.5;0.5;;;;;;;15.5;100.0;101860;;;;
2022/06/10 04:34:00;;;;;;;0.5;0.5;;;;;;;15.5;100.0;101860;;;;
2022/06/10 04:35:00;;;;;;;0.5;0.5;;;;;;;15.5;100.0;101860;;;;
2022/06/10 04:36:00;;;;;;;0.5;0.5;;;;;;;15.5;100.0;101860;;;;
2022/06/10 04:37:00;;;;;;;0.5;0.5;;;;;;;15.6;100.0;101860;;;;
2022/06/10 04:38:05;;;;;;;0.5;0.5;;;;;;;15.6;100.0;101860;;;;
2022/06/10 04:39:00;;;;;;;0.5;0.5;;;;;;;15.5;100.0;101860;;;;
2022/06/10 04:40:00;;;;;;;0.5;0.5;;;;;;;15.5;100.0;101860;;;;
2022/06/10 04:41:00;;;;;;;0.5;0.5;;;;;;;15.6;100.0;101860;;;;
2022/06/10 04:42:00;;;;;;;0.5;0.5;;;;;;;15.6;100.0;101860;;;;
2022/06/10 04:43:00;;;;;;;0.5;0.5;;;;;;;15.6;100.0;101860;;;;
2022/06/10 04:44:00;;;;;;;0.5;0.5;;;;;;;15.6;100.0;101860;;;;
2022/06/10 04:45:00;;;;;;;0.5;0.5;;;;;;;15.6;100.0;101860;;;;
2022/06/10 04:46:01;;;;;;;0.3;0.3;;;;;;;15.6;100.0;101860;;;;
2022/06/10 04:47:00;;;;;;;0.3;0.3;;;;;;;15.7;100.0;101860;;;;
2022/06/10 04:48:00;;;;;;;0.3;0.3;;;;;;;15.7;100.0;101860;;;;
2022/06/10 04:49:00;;;;;;;0.3;0.3;;;;;;;15.7;100.0;101860;;;;
2022/06/10 04:50:01;;;;;;;0.3;0.3;;;;;;;15.7;100.0;101860;;;;
2022/06/10 04:51:00;;;;;;;0.3;0.3;;;;;;;15.8;100.0;101860;;;;
2022/06/10 04:52:00;;;;;;;0.3;0.3;;;;;;;15.8;100.0;101860;;;;
2022/06/10 04:53:00;;;;;;;0.3;0.3;;;;;;;15.8;100.0;101860;;;;
2022/06/10 04:54:00;;;;;;;0.3;0.3;;;;;;;15.8;100.0;101860;;;;
2022/06/10 04:55:00;;;;;;;0.3;0.3;;;;;;;15.7;100.0;101860;;;;
2022/06/10 04:56:01;;;;;;;0.3;0.3;;;;;;;15.7;100.0;101860;;;;
2022/06/10 04:57:00;;;;;;;0.3;0.3;;;;;;;15.8;100.0;101860;;;;
2022/06/10 04:58:00;;;;;;;0.3;0.3;;;;;;;15.8;100.0;101860;;;;
2022/06/10 04:59:00;;;;;;;0.3;0.3;;;;;;;15.8;100.0;101860;;;;
2022/06/10 05:00:00;;;;;;;0.3;0.3;;;;;;;15.8;100.0;101860;;;;
2022/06/10 05:01:00;;;;;;;0.3;0.3;;;;;;;15.9;100.0;101850;;;;
2022/06/10 05:02:00;;;;;;;0.3;0.3;;;;;;;15.9;100.0;101850;;;;
2022/06/10 05:03:02;;;;;;;0.3;0.3;;;;;;;15.9;100.0;101860;;;;
2022/06/10 05:04:00;;;;;;;0.3;0.3;;;;;;;15.9;100.0;101860;;;;
2022/06/10 05:05:00;;;;;;;0.3;0.3;;;;;;;15.9;100.0;101860;;;;
2022/06/10 05:06:00;;;;;;;0.4;0.4;;;;;;;15.9;100.0;101860;;;;
2022/06/10 05:07:00;;;;;;;0.4;0.4;;;;;;;15.9;100.0;101860;;;;
2022/06/10 05:08:00;;;;;;;0.4;0.4;;;;;;;15.9;100.0;101860;;;;
2022/06/10 05:09:00;;;;;;;0.4;0.4;;;;;;;16.1;100.0;101860;;;;
2022/06/10 05:10:00;;;;;;;0.4;0.4;;;;;;;16.1;100.0;101860;;;;
2022/06/10 05:11:00;;;;;;;0.4;0.4;;;;;;;16.1;100.0;101860;;;;
2022/06/10 05:12:00;;;;;;;0.4;0.4;;;;;;;16.1;100.0;101860;;;;
2022/06/10 05:13:00;;;;;;;0.4;0.4;;;;;;;16.2;100.0;101860;;;;
2022/06/10 05:14:00;;;;;;;0.4;0.4;;;;;;;16.2;100.0;101860;;;;
2022/06/10 05:15:00;;;;;;;0.4;0.4;;;;;;;16.1;100.0;101860;;;;
2022/06/10 05:16:00;;;;;;;0.4;0.4;;;;;;;16.1;100.0;101860;;;;
2022/06/10 05:17:00;;;;;;;0.4;0.4;;;;;;;16.2;100.0;101860;;;;
2022/06/10 05:18:00;;;;;;;0.4;0.4;;;;;;;16.2;100.0;101860;;;;
2022/06/10 05:19:00;;;;;;;0.4;0.4;;;;;;;16.2;100.0;101860;;;;
2022/06/10 05:20:00;;;;;;;0.4;0.4;;;;;;;16.2;100.0;101860;;;;
2022/06/10 05:21:00;;;;;;;0.4;0.4;;;;;;;16.3;100.0;101860;;;;
2022/06/10 05:22:00;;;;;;;0.4;0.4;;;;;;;16.3;100.0;101860;;;;
2022/06/10 05:23:02;;;;;;;0.4;0.4;;;;;;;16.3;100.0;101850;;;;
2022/06/10 05:24:00;;;;;;;0.4;0.4;;;;;;;16.3;100.0;101850;;;;
2022/06/10 05:25:00;;;;;;;0.4;0.4;;;;;;;16.3;100.0;101850;;;;
2022/06/10 05:26:00;;;;;;;1.4;1.2;;;;;;;16.3;100.0;101850;;;;
2022/06/10 05:27:00;;;;;;;1.4;1.2;;;;;;;16.4;100.0;101850;;;;
2022/06/10 05:28:00;;;;;;;1.4;1.2;;;;;;;16.4;100.0;101850;;;;
2022/06/10 05:29:00;;;;;;;1.4;1.2;;;;;;;16.4;100.0;101850;;;;
2022/06/10 05:30:00;;;;;;;1.4;1.2;;;;;;;16.4;100.0;101850;;;;
2022/06/10 05:31:00;;;;;;;1.4;1.2;;;;;;;16.5;100.0;101850;;;;
2022/06/10 05:32:00;;;;;;;1.4;1.2;;;;;;;16.5;100.0;101850;;;;
2022/06/10 05:33:01;;;;;;;1.4;1.2;;;;;;;16.5;100.0;101850;;;;
2022/06/10 05:35:00;;;;;;;1.4;1.2;;;;;;;16.6;100.0;101850;;;;
2022/06/10 05:36:00;;;;;;;1.4;1.2;;;;;;;16.6;100.0;101850;;;;
2022/06/10 05:37:00;;;;;;;1.4;1.2;;;;;;;16.6;100.0;101850;;;;
2022/06/10 05:38:00;;;;;;;1.4;1.2;;;;;;;16.6;100.0;101850;;;;
2022/06/10 05:39:00;;;;;;;1.4;1.2;;;;;;;16.5;100.0;101850;;;;
2022/06/10 05:40:00;;;;;;;1.4;1.2;;;;;;;16.5;100.0;101850;;;;
2022/06/10 05:42:04;;;;;;;1.4;1.2;;;;;;;16.5;100.0;101850;;;;
2022/06/10 05:42:08;;;;;;;1.4;1.2;;;;;;;16.5;100.0;101850;;;;
2022/06/10 05:43:00;;;;;;;1.4;1.2;;;;;;;16.5;100.0;101850;;;;
2022/06/10 05:44:00;;;;;;;1.4;1.2;;;;;;;16.5;100.0;101850;;;;
2022/06/10 05:45:00;;;;;;;1.4;1.2;;;;;;;16.5;100.0;101860;;;;
2022/06/10 05:46:00;;;;;;;0.6;0.6;;;;;;;16.5;100.0;101860;;;;
2022/06/10 05:47:00;;;;;;;0.6;0.6;;;;;;;16.5;100.0;101860;;;;
2022/06/10 05:48:01;;;;;;;0.6;0.6;;;;;;;16.5;100.0;101860;;;;
2022/06/10 05:49:00;;;;;;;0.6;0.6;;;;;;;16.7;100.0;101860;;;;
2022/06/10 05:50:03;;;;;;;0.6;0.6;;;;;;;16.7;100.0;101860;;;;
2022/06/10 05:51:00;;;;;;;0.6;0.6;;;;;;;16.6;100.0;101860;;;;
2022/06/10 05:52:00;;;;;;;0.6;0.6;;;;;;;16.6;100.0;101860;;;;
2022/06/10 05:53:00;;;;;;;0.6;0.6;;;;;;;16.7;100.0;101850;;;;
2022/06/10 05:54:00;;;;;;;0.6;0.6;;;;;;;16.7;100.0;101850;;;;
2022/06/10 05:55:01;;;;;;;0.6;0.6;;;;;;;16.6;100.0;101850;;;;
2022/06/10 05:56:00;;;;;;;0.6;0.6;;;;;;;16.6;100.0;101850;;;;
2022/06/10 05:57:00;;;;;;;0.6;0.6;;;;;;;16.6;100.0;101850;;;;
2022/06/10 05:58:00;;;;;;;0.6;0.6;;;;;;;16.6;100.0;101850;;;;
2022/06/10 05:59:00;;;;;;;0.6;0.6;;;;;;;16.7;100.0;101850;;;;
2022/06/10 06:00:00;;;;;;;0.6;0.6;;;;;;;16.7;100.0;101850;;;;
2022/06/10 06:01:00;;;;;;;0.6;0.6;;;;;;;16.7;100.0;101850;;;;
2022/06/10 06:02:01;;;;;;;0.6;0.6;;;;;;;16.7;100.0;101850;;;;
2022/06/10 06:03:00;;;;;;;0.6;0.6;;;;;;;16.8;100.0;101850;;;;
2022/06/10 06:04:00;;;;;;;0.6;0.6;;;;;;;16.8;100.0;101850;;;;
2022/06/10 06:05:00;;;;;;;0.6;0.6;;;;;;;16.9;100.0;101850;;;;
2022/06/10 06:06:00;;;;;;;0.3;0.3;;;;;;;16.9;100.0;101850;;;;
2022/06/10 06:07:00;;;;;;;0.3;0.3;;;;;;;16.9;100.0;101850;;;;
2022/06/10 06:08:00;;;;;;;0.3;0.3;;;;;;;16.9;100.0;101850;;;;
2022/06/10 06:09:00;;;;;;;0.3;0.3;;;;;;;16.9;100.0;101850;;;;
2022/06/10 06:10:00;;;;;;;0.3;0.3;;;;;;;16.9;100.0;101850;;;;
2022/06/10 06:11:00;;;;;;;0.3;0.3;;;;;;;16.9;100.0;101860;;;;
2022/06/10 06:12:00;;;;;;;0.3;0.3;;;;;;;16.9;100.0;101860;;;;
2022/06/10 06:13:00;;;;;;;0.3;0.3;;;;;;;17.1;100.0;101860;;;;
2022/06/10 06:14:00;;;;;;;0.3;0.3;;;;;;;17.1;100.0;101860;;;;
2022/06/10 06:15:00;;;;;;;0.3;0.3;;;;;;;17.1;100.0;101860;;;;
2022/06/10 06:16:00;;;;;;;0.3;0.3;;;;;;;17.1;100.0;101860;;;;
2022/06/10 06:17:01;;;;;;;0.3;0.3;;;;;;;17.1;100.0;101860;;;;
2022/06/10 06:18:00;;;;;;;0.3;0.3;;;;;;;17.1;100.0;101860;;;;
2022/06/10 06:19:00;;;;;;;0.3;0.3;;;;;;;17.1;100.0;101860;;;;
2022/06/10 06:20:00;;;;;;;0.3;0.3;;;;;;;17.1;100.0;101860;;;;
2022/06/10 06:21:00;;;;;;;0.3;0.3;;;;;;;17.2;100.0;101860;;;;
2022/06/10 06:22:00;;;;;;;0.3;0.3;;;;;;;17.2;100.0;101860;;;;
2022/06/10 06:23:00;;;;;;;0.3;0.3;;;;;;;17.2;100.0;101870;;;;
2022/06/10 06:24:00;;;;;;;0.3;0.3;;;;;;;17.2;100.0;101870;;;;
2022/06/10 06:25:00;;;;;;;0.3;0.3;;;;;;;17.3;100.0;101870;;;;
2022/06/10 06:26:00;;;;;;;0.3;0.3;;;;;;;17.3;100.0;101870;;;;
2022/06/10 06:27:01;;;;;;;0.3;0.3;;;;;;;17.4;100.0;101860;;;;